Time;durP1;ratioP1;P1;durP2;ratioP2;P2;SDS_P1;SDS_P2;PMS_P1;PMS_P2;Temp;Humidity;BMP_temperature;BMP_pressure;BME280_temperature;BME280_humidity;BME280_pressure;Samples;Min_cycle;Max_cycle;Signal;HPM_P1;HPM_P2
2023/12/20 00:01:52;;;;;;;3.25;2.10;;;;;;;-7.85;100.00;100204.22;5013961;28;20111;-62
2023/12/20 00:04:23;;;;;;;1.98;1.83;;;;;;;-7.92;100.00;100196.19;5023899;28;20266;-68
2023/12/20 00:06:53;;;;;;;7.72;2.40;;;;;;;-8.01;100.00;100191.47;5014020;28;20135;-62
2023/12/20 00:09:25;;;;;;;6.35;2.22;;;;;;;-8.05;100.00;100214.91;5023809;28;20494;-65
2023/12/20 00:11:56;;;;;;;7.03;2.58;;;;;;;-8.01;100.00;100206.69;5021953;28;20473;-64
2023/12/20 00:14:27;;;;;;;3.90;2.42;;;;;;;-7.98;100.00;100211.94;5022408;28;20063;-66
2023/12/20 00:16:57;;;;;;;5.20;2.25;;;;;;;-7.96;100.00;100220.50;5013378;28;20060;-65
2023/12/20 00:19:27;;;;;;;3.92;2.20;;;;;;;-7.98;100.00;100201.78;5023661;28;20140;-66
2023/12/20 00:21:59;;;;;;;7.30;2.30;;;;;;;-7.93;100.00;100210.53;5014287;28;20575;-65
2023/12/20 00:24:31;;;;;;;5.07;2.30;;;;;;;-7.89;100.00;100212.44;5024687;28;20073;-70
2023/12/20 00:27:02;;;;;;;4.75;2.30;;;;;;;-7.89;100.00;100222.56;5013965;28;20045;-63
2023/12/20 00:29:32;;;;;;;4.85;2.10;;;;;;;-7.91;100.00;100214.03;5012799;28;20500;-68
2023/12/20 00:32:03;;;;;;;7.93;2.80;;;;;;;-7.86;100.00;100207.56;5024212;28;20135;-66
2023/12/20 00:34:33;;;;;;;2.13;1.92;;;;;;;-7.81;100.00;100206.16;5002872;28;20087;-66
2023/12/20 00:37:04;;;;;;;7.90;2.30;;;;;;;-7.84;100.00;100207.63;5003847;28;20049;-64
2023/12/20 00:39:36;;;;;;;4.90;2.30;;;;;;;-7.76;100.00;100215.66;4993937;28;20076;-69
2023/12/20 00:42:07;;;;;;;4.57;2.53;;;;;;;-7.71;100.00;100205.00;5004343;28;20571;-66
2023/12/20 00:44:37;;;;;;;6.68;2.80;;;;;;;-7.68;100.00;100207.69;4994621;28;20059;-67
2023/12/20 00:47:08;;;;;;;5.47;2.33;;;;;;;-7.77;100.00;100191.09;5004029;28;20111;-66
2023/12/20 00:49:38;;;;;;;5.10;2.30;;;;;;;-7.91;100.00;100198.81;5007751;28;20143;-67
2023/12/20 00:52:08;;;;;;;4.53;2.90;;;;;;;-8.00;100.00;100205.91;5023402;28;20060;-64
2023/12/20 00:54:40;;;;;;;14.93;2.67;;;;;;;-8.10;100.00;100203.63;5013876;28;20047;-61
2023/12/20 00:57:11;;;;;;;6.63;2.50;;;;;;;-8.16;100.00;100205.78;5009847;28;20778;-67
2023/12/20 00:59:41;;;;;;;3.97;2.47;;;;;;;-8.18;100.00;100182.03;4994829;28;20057;-65
2023/12/20 01:02:12;;;;;;;5.97;2.75;;;;;;;-8.20;100.00;100198.81;5011031;28;20137;-65
2023/12/20 01:04:42;;;;;;;2.92;2.22;;;;;;;-8.18;100.00;100203.19;5013501;28;20073;-68
2023/12/20 01:07:13;;;;;;;3.78;2.17;;;;;;;-8.12;100.00;100205.19;5023569;28;20060;-64
2023/12/20 01:09:45;;;;;;;4.80;2.25;;;;;;;-8.06;100.00;100198.81;5017572;28;20053;-68
2023/12/20 01:12:14;;;;;;;6.93;2.65;;;;;;;-8.01;100.00;100196.56;5027545;28;20077;-67
2023/12/20 01:14:45;;;;;;;3.58;2.22;;;;;;;-8.00;100.00;100188.16;5014851;28;20077;-62
2023/12/20 01:17:15;;;;;;;8.10;2.83;;;;;;;-7.97;100.00;100193.38;5024340;28;20080;-68
2023/12/20 01:19:45;;;;;;;2.25;2.05;;;;;;;-7.95;100.00;100186.75;5017009;28;20057;-65
2023/12/20 01:22:16;;;;;;;6.20;3.25;;;;;;;-7.89;100.00;100196.34;5022095;28;20091;-67
2023/12/20 01:24:48;;;;;;;8.88;2.63;;;;;;;-7.84;100.00;100189.88;5017156;28;20052;-65
2023/12/20 01:27:19;;;;;;;3.42;2.63;;;;;;;-7.87;100.00;100185.50;5026870;28;20073;-65
2023/12/20 01:29:49;;;;;;;3.95;2.25;;;;;;;-7.79;100.00;100187.59;5015475;28;20063;-67
2023/12/20 01:32:19;;;;;;;4.93;1.80;;;;;;;-7.73;100.00;100190.47;5013405;28;20063;-68
2023/12/20 01:34:48;;;;;;;6.15;3.13;;;;;;;-7.68;100.00;100187.41;5010921;28;20068;-69
2023/12/20 01:37:19;;;;;;;9.20;3.13;;;;;;;-7.65;100.00;100181.63;5013108;28;20053;-65
2023/12/20 01:39:51;;;;;;;6.03;2.80;;;;;;;-7.52;100.00;100189.09;4997693;28;20062;-66
2023/12/20 01:42:22;;;;;;;3.95;2.20;;;;;;;-7.41;100.00;100172.81;5007572;28;20398;-68
2023/12/20 01:44:52;;;;;;;5.85;2.63;;;;;;;-7.38;100.00;100175.50;5003068;28;20963;-65
2023/12/20 01:47:22;;;;;;;3.58;1.98;;;;;;;-7.33;100.00;100179.97;5027072;28;20732;-70
2023/12/20 01:49:53;;;;;;;4.68;2.33;;;;;;;-7.31;100.00;100183.44;5017673;28;20140;-64
2023/12/20 01:52:24;;;;;;;9.85;2.70;;;;;;;-7.24;100.00;100185.50;5021445;28;20133;-65
2023/12/20 01:55:02;;;;;;;2.28;2.08;;;;;;;-7.24;100.00;100180.44;5000385;28;20055;-66
2023/12/20 01:57:33;;;;;;;4.75;2.70;;;;;;;-7.30;100.00;100180.13;5011708;28;20492;-68
2023/12/20 02:00:04;;;;;;;3.30;1.83;;;;;;;-7.28;100.00;100178.53;5021974;28;20059;-65
2023/12/20 02:02:36;;;;;;;4.32;1.95;;;;;;;-7.38;100.00;100172.97;5012490;28;20152;-67
2023/12/20 02:05:07;;;;;;;4.18;2.22;;;;;;;-7.37;100.00;100183.97;5021779;28;20057;-70
2023/12/20 02:07:38;;;;;;;5.18;2.00;;;;;;;-7.52;100.00;100178.94;5012053;28;20076;-71
2023/12/20 02:10:11;;;;;;;2.13;2.00;;;;;;;-7.56;100.00;100174.50;5022217;28;20049;-70
2023/12/20 02:12:42;;;;;;;2.42;2.00;;;;;;;-7.63;100.00;100180.03;5011143;28;20048;-64
2023/12/20 02:15:12;;;;;;;5.30;2.30;;;;;;;-7.67;100.00;100178.13;5027572;28;20067;-65
2023/12/20 02:17:43;;;;;;;2.55;1.90;;;;;;;-7.64;100.00;100173.19;5028812;28;20469;-67
2023/12/20 02:20:14;;;;;;;3.00;2.10;;;;;;;-7.65;100.00;100176.53;5037473;28;20048;-67
2023/12/20 02:22:46;;;;;;;3.95;2.50;;;;;;;-7.64;100.00;100178.28;5028200;28;20053;-68
2023/12/20 02:25:16;;;;;;;2.72;2.20;;;;;;;-7.63;100.00;100180.91;5039053;28;20418;-65
2023/12/20 02:27:47;;;;;;;4.90;2.30;;;;;;;-7.55;100.00;100173.72;5028588;28;20052;-65
2023/12/20 02:30:18;;;;;;;2.25;1.83;;;;;;;-7.47;100.00;100172.47;5038373;28;20079;-67
2023/12/20 02:32:49;;;;;;;3.28;1.90;;;;;;;-7.40;100.00;100179.63;5028760;28;20044;-70
2023/12/20 02:35:20;;;;;;;5.05;2.30;;;;;;;-7.41;100.00;100167.72;5038102;28;20151;-67
2023/12/20 02:37:52;;;;;;;3.10;1.77;;;;;;;-7.29;100.00;100176.78;5028241;28;20078;-69
2023/12/20 02:40:22;;;;;;;4.03;2.70;;;;;;;-7.43;100.00;100169.31;5037766;28;20064;-70
2023/12/20 02:42:52;;;;;;;2.75;2.17;;;;;;;-7.47;100.00;100171.59;5028349;28;20954;-66
2023/12/20 02:45:23;;;;;;;4.70;2.28;;;;;;;-7.51;100.00;100162.94;5037590;28;20049;-63
2023/12/20 02:47:53;;;;;;;3.95;2.50;;;;;;;-7.51;100.00;100160.41;5028302;28;20095;-63
2023/12/20 02:50:24;;;;;;;3.50;2.30;;;;;;;-7.46;100.00;100159.00;5038005;28;20143;-66
2023/12/20 02:52:56;;;;;;;2.15;1.80;;;;;;;-7.53;100.00;100146.75;5027560;28;20056;-66
2023/12/20 02:55:26;;;;;;;3.80;1.98;;;;;;;-7.47;100.00;100147.06;5037628;28;20135;-68
2023/12/20 02:57:57;;;;;;;4.43;2.28;;;;;;;-7.52;99.86;100148.50;5026885;28;20488;-70
2023/12/20 03:00:27;;;;;;;6.00;2.55;;;;;;;-7.68;99.65;100145.94;5038181;28;20061;-71
2023/12/20 03:02:59;;;;;;;6.43;2.20;;;;;;;-7.64;100.00;100157.97;5027943;28;20136;-66
2023/12/20 03:05:29;;;;;;;4.72;2.55;;;;;;;-7.68;100.00;100140.88;5038180;28;20048;-71
2023/12/20 03:08:02;;;;;;;2.78;2.13;;;;;;;-7.77;100.00;100155.56;5027345;28;20060;-63
2023/12/20 03:10:32;;;;;;;4.80;2.20;;;;;;;-7.75;100.00;100148.94;5027964;28;20144;-68
2023/12/20 03:13:03;;;;;;;2.35;1.98;;;;;;;-7.74;99.72;100155.72;5037531;28;20048;-69
2023/12/20 03:15:33;;;;;;;2.20;2.00;;;;;;;-7.73;99.20;100142.28;5038833;28;20047;-72
2023/12/20 03:18:04;;;;;;;8.05;2.90;;;;;;;-7.70;98.22;100147.50;5056858;28;20586;-68
2023/12/20 03:20:34;;;;;;;4.07;2.15;;;;;;;-7.59;97.65;100141.34;5044235;28;20044;-67
2023/12/20 03:23:06;;;;;;;3.88;2.33;;;;;;;-7.40;96.05;100148.28;5056540;28;20185;-68
2023/12/20 03:25:37;;;;;;;11.23;3.03;;;;;;;-7.32;96.12;100141.06;5046765;28;20581;-69
2023/12/20 03:28:07;;;;;;;2.30;1.73;;;;;;;-7.31;94.57;100127.56;5057860;28;20047;-74
2023/12/20 03:30:38;;;;;;;5.05;1.95;;;;;;;-7.33;94.73;100141.88;5048882;28;20059;-69
2023/12/20 03:33:09;;;;;;;3.15;2.25;;;;;;;-7.38;94.13;100122.19;5060261;28;20056;-67
2023/12/20 03:35:39;;;;;;;3.97;1.95;;;;;;;-7.38;94.13;100134.88;5050194;28;20063;-67
2023/12/20 03:38:11;;;;;;;4.43;2.33;;;;;;;-7.44;94.48;100109.19;5058986;28;20152;-63
2023/12/20 03:40:41;;;;;;;3.67;2.20;;;;;;;-7.38;94.59;100137.41;5046131;28;20048;-72
2023/12/20 03:43:12;;;;;;;5.03;2.35;;;;;;;-7.34;95.24;100140.13;5059642;28;20145;-65
2023/12/20 03:45:43;;;;;;;3.42;1.83;;;;;;;-7.33;94.85;100129.19;5048677;28;20075;-71
2023/12/20 03:48:13;;;;;;;4.13;1.92;;;;;;;-7.18;95.53;100124.91;5059492;28;20044;-71
2023/12/20 03:50:44;;;;;;;4.13;2.33;;;;;;;-7.19;95.44;100123.16;5049577;28;20434;-67
2023/12/20 03:53:16;;;;;;;2.50;1.95;;;;;;;-7.34;95.29;100107.13;5059053;28;20060;-67
2023/12/20 03:55:46;;;;;;;2.17;1.80;;;;;;;-7.35;94.96;100120.63;5049111;28;20047;-70
2023/12/20 03:58:17;;;;;;;2.97;2.50;;;;;;;-7.46;95.69;100127.63;5059331;28;20059;-66
2023/12/20 04:00:47;;;;;;;2.63;2.42;;;;;;;-7.62;95.62;100116.69;5045514;28;20147;-68
2023/12/20 04:03:18;;;;;;;2.03;1.85;;;;;;;-7.58;96.04;100129.56;5057337;28;20043;-69
2023/12/20 04:05:48;;;;;;;7.35;2.30;;;;;;;-7.58;95.84;100122.81;5047731;28;20165;-70
2023/12/20 04:08:20;;;;;;;4.72;2.25;;;;;;;-7.71;95.79;100120.38;5059079;28;20060;-69
2023/12/20 04:10:51;;;;;;;2.58;2.25;;;;;;;-7.81;96.53;100135.13;5048954;28;20049;-69
2023/12/20 04:13:21;;;;;;;4.25;2.50;;;;;;;-7.77;96.93;100125.13;5059086;28;20083;-67
2023/12/20 04:15:52;;;;;;;17.52;2.67;;;;;;;-7.83;97.00;100116.41;5035594;28;20095;-71
2023/12/20 04:18:22;;;;;;;3.63;1.98;;;;;;;-7.92;96.88;100136.19;5038724;28;20048;-69
2023/12/20 04:20:53;;;;;;;2.15;1.98;;;;;;;-8.10;97.68;100140.25;5029043;28;20393;-72
2023/12/20 04:23:26;;;;;;;2.15;1.98;;;;;;;-8.13;98.72;100135.00;5038712;28;20135;-72
2023/12/20 04:25:57;;;;;;;3.20;2.33;;;;;;;-8.13;98.41;100135.00;5044081;28;20055;-72
2023/12/20 04:28:30;;;;;;;2.38;2.05;;;;;;;-8.16;98.59;100140.78;5057057;28;20048;-67
2023/12/20 04:31:00;;;;;;;5.25;2.42;;;;;;;-8.20;99.12;100132.91;5047536;28;20127;-69
2023/12/20 04:33:31;;;;;;;6.10;2.25;;;;;;;-8.26;99.05;100129.25;5055104;28;20150;-66
2023/12/20 04:36:01;;;;;;;5.78;2.70;;;;;;;-8.37;99.21;100130.28;5057607;28;20066;-67
2023/12/20 04:38:33;;;;;;;3.75;2.20;;;;;;;-8.33;99.95;100142.34;5051275;28;20990;-66
2023/12/20 04:41:03;;;;;;;6.20;2.38;;;;;;;-8.32;100.00;100144.09;5057354;28;20084;-66
2023/12/20 04:43:34;;;;;;;2.35;2.15;;;;;;;-8.37;99.99;100130.28;5046422;28;20153;-68
2023/12/20 04:46:04;;;;;;;5.65;2.53;;;;;;;-8.29;100.00;100134.13;5057126;28;20142;-68
2023/12/20 04:48:35;;;;;;;6.45;2.28;;;;;;;-8.25;99.76;100136.06;5042542;28;20059;-69
2023/12/20 04:51:06;;;;;;;10.48;2.60;;;;;;;-8.25;99.94;100138.59;5059537;28;20500;-66
2023/12/20 04:53:38;;;;;;;8.05;2.70;;;;;;;-8.51;99.84;100085.59;5048632;28;20151;-69
2023/12/20 04:56:08;;;;;;;5.35;2.30;;;;;;;-8.28;99.71;100153.63;5054937;28;20143;-65
2023/12/20 04:58:39;;;;;;;5.38;2.58;;;;;;;-8.35;99.06;100131.25;5044950;28;20103;-68
2023/12/20 05:01:10;;;;;;;2.55;2.20;;;;;;;-8.34;98.71;100148.19;5055422;28;20048;-65
2023/12/20 05:03:40;;;;;;;11.45;2.58;;;;;;;-8.47;98.94;100144.13;5047401;28;20052;-64
2023/12/20 05:06:11;;;;;;;3.67;2.10;;;;;;;-8.49;99.40;100134.69;5058781;28;20124;-65
2023/12/20 05:08:44;;;;;;;2.88;2.10;;;;;;;-8.53;99.30;100155.59;5048729;28;20088;-66
2023/12/20 05:11:15;;;;;;;4.85;2.33;;;;;;;-8.53;99.46;100142.91;5058792;28;20052;-69
2023/12/20 05:13:46;;;;;;;2.72;2.30;;;;;;;-8.69;98.77;100169.88;5048007;28;20158;-66
2023/12/20 05:16:19;;;;;;;2.58;2.17;;;;;;;-8.64;98.99;100143.94;5054737;28;20193;-69
2023/12/20 05:18:52;;;;;;;6.93;2.78;;;;;;;-8.71;99.74;100133.47;5044587;28;20123;-69
2023/12/20 05:21:22;;;;;;;4.68;2.35;;;;;;;-8.59;99.80;100163.69;5056119;28;20776;-68
2023/12/20 05:23:55;;;;;;;7.90;2.03;;;;;;;-8.56;99.94;100163.00;5047473;28;20144;-66
2023/12/20 05:26:25;;;;;;;7.93;3.20;;;;;;;-8.58;100.00;100156.97;5058078;28;20059;-68
2023/12/20 05:28:55;;;;;;;6.55;2.92;;;;;;;-8.59;100.00;100157.75;5047152;28;20056;-66
2023/12/20 05:31:26;;;;;;;4.10;1.88;;;;;;;-8.61;100.00;100164.38;5057473;28;20141;-68
2023/12/20 05:33:56;;;;;;;4.97;2.35;;;;;;;-8.63;100.00;100160.91;5047953;28;20102;-66
2023/12/20 05:36:27;;;;;;;7.63;2.88;;;;;;;-8.64;100.00;100164.22;5058445;28;20060;-65
2023/12/20 05:38:59;;;;;;;5.22;2.42;;;;;;;-8.63;100.00;100165.97;5047828;28;20048;-68
2023/12/20 05:41:29;;;;;;;6.50;2.33;;;;;;;-8.62;100.00;100177.84;5058029;28;20156;-68
2023/12/20 05:44:00;;;;;;;2.88;2.20;;;;;;;-8.68;99.73;100169.09;5047510;28;20113;-66
2023/12/20 05:46:30;;;;;;;7.07;2.42;;;;;;;-8.65;99.74;100159.94;5056851;28;20131;-68
2023/12/20 05:49:01;;;;;;;5.28;2.75;;;;;;;-8.68;100.00;100174.16;5058159;28;20805;-66
2023/12/20 05:51:31;;;;;;;5.07;3.25;;;;;;;-8.73;100.00;100174.69;5052653;28;20059;-68
2023/12/20 05:54:04;;;;;;;6.05;2.65;;;;;;;-8.79;100.00;100175.19;5059669;28;20052;-67
2023/12/20 05:56:34;;;;;;;4.68;3.10;;;;;;;-8.88;100.00;100169.59;5051401;28;20561;-68
2023/12/20 05:59:04;;;;;;;7.03;2.75;;;;;;;-8.79;100.00;100182.78;5062200;28;20121;-71
2023/12/20 06:01:35;;;;;;;6.57;3.00;;;;;;;-8.85;100.00;100179.91;5050913;28;20080;-70
2023/12/20 06:04:06;;;;;;;8.68;3.33;;;;;;;-8.82;100.00;100190.19;5061378;28;20058;-67
2023/12/20 06:06:41;;;;;;;5.53;2.88;;;;;;;-8.88;100.00;100173.75;5047246;28;20045;-71
2023/12/20 06:09:15;;;;;;;5.30;3.05;;;;;;;-8.94;100.00;100186.94;5060939;28;20440;-68
2023/12/20 06:11:45;;;;;;;3.55;2.53;;;;;;;-9.02;100.00;100190.66;5050049;28;20781;-68
2023/12/20 06:14:16;;;;;;;4.80;2.50;;;;;;;-9.10;100.00;100171.63;5058756;28;20139;-64
2023/12/20 06:16:47;;;;;;;8.48;3.38;;;;;;;-9.12;100.00;100185.03;5050845;28;20145;-66
2023/12/20 06:19:18;;;;;;;2.55;2.15;;;;;;;-9.14;100.00;100165.50;5057908;28;20135;-67
2023/12/20 06:21:48;;;;;;;8.20;2.70;;;;;;;-9.15;100.00;100179.81;5049976;28;20044;-65
2023/12/20 06:24:27;;;;;;;3.10;2.58;;;;;;;-9.17;100.00;100188.97;5061066;28;20056;-66
2023/12/20 06:26:57;;;;;;;6.22;2.70;;;;;;;-9.16;100.00;100193.25;5042276;28;20071;-67
2023/12/20 06:29:28;;;;;;;6.60;2.97;;;;;;;-9.18;100.00;100194.81;5060892;28;20125;-67
2023/12/20 06:31:58;;;;;;;4.68;2.88;;;;;;;-9.16;100.00;100198.31;5049687;28;20501;-67
2023/12/20 06:34:29;;;;;;;4.80;2.47;;;;;;;-9.21;100.00;100197.16;5060533;28;20532;-67
2023/12/20 06:36:59;;;;;;;4.22;2.47;;;;;;;-9.24;100.00;100196.09;5050537;28;20063;-68
2023/12/20 06:39:33;;;;;;;11.50;2.97;;;;;;;-9.26;100.00;100195.09;5060500;28;20052;-66
2023/12/20 06:42:04;;;;;;;6.45;2.85;;;;;;;-9.28;100.00;100195.03;5050603;28;20548;-67
2023/12/20 06:44:35;;;;;;;4.35;3.13;;;;;;;-9.32;100.00;100193.09;5050560;28;20052;-67
2023/12/20 06:47:05;;;;;;;7.60;2.90;;;;;;;-9.31;100.00;100206.59;5060495;28;20076;-68
2023/12/20 06:49:36;;;;;;;8.30;3.13;;;;;;;-9.57;100.00;100163.75;5050460;28;20056;-70
2023/12/20 06:52:06;;;;;;;6.00;3.00;;;;;;;-9.32;100.00;100215.84;5060582;28;20060;-67
2023/12/20 06:54:38;;;;;;;5.82;3.03;;;;;;;-9.33;100.00;100221.72;5046837;28;20060;-72
2023/12/20 06:57:09;;;;;;;3.22;2.30;;;;;;;-9.35;100.00;100230.84;5060751;28;20112;-66
2023/12/20 06:59:41;;;;;;;4.32;2.50;;;;;;;-9.37;100.00;100227.34;5050377;28;20105;-65
2023/12/20 07:02:11;;;;;;;6.55;2.53;;;;;;;-9.38;100.00;100205.38;5060275;28;20066;-70
2023/12/20 07:04:44;;;;;;;13.52;2.83;;;;;;;-9.40;100.00;100222.09;5050020;28;20167;-75
2023/12/20 07:07:14;;;;;;;7.60;2.65;;;;;;;-9.39;100.00;100211.19;5059770;28;20043;-70
2023/12/20 07:09:46;;;;;;;15.70;2.90;;;;;;;-9.39;100.00;100226.38;5046102;28;20054;-68
2023/12/20 07:12:18;;;;;;;3.15;2.60;;;;;;;-9.39;100.00;100223.84;5058291;28;20063;-67
2023/12/20 07:14:49;;;;;;;3.03;2.33;;;;;;;-9.42;100.00;100223.66;5048579;28;20453;-72
2023/12/20 07:17:19;;;;;;;7.80;2.72;;;;;;;-9.43;100.00;100227.00;5060330;28;20056;-71
2023/12/20 07:19:49;;;;;;;4.05;3.58;;;;;;;-9.45;100.00;100233.59;5049009;28;20126;-66
2023/12/20 07:22:20;;;;;;;5.13;2.95;;;;;;;-9.48;100.00;100225.78;5055812;28;20138;-69
2023/12/20 07:24:54;;;;;;;3.70;2.45;;;;;;;-9.48;100.00;100229.22;5045943;28;20060;-68
2023/12/20 07:27:25;;;;;;;3.30;2.20;;;;;;;-9.51;100.00;100230.66;5059481;28;20048;-71
2023/12/20 07:29:55;;;;;;;3.90;2.53;;;;;;;-9.51;100.00;100228.13;5049156;28;20134;-69
2023/12/20 07:32:26;;;;;;;5.10;2.47;;;;;;;-9.53;100.00;100232.22;5059777;28;20071;-71
2023/12/20 07:34:57;;;;;;;2.75;2.15;;;;;;;-9.56;100.00;100228.75;5049049;28;20055;-68
2023/12/20 07:37:27;;;;;;;3.58;2.35;;;;;;;-9.56;100.00;100235.44;5060007;28;20071;-69
2023/12/20 07:39:59;;;;;;;4.43;2.88;;;;;;;-9.55;100.00;100233.00;5048815;28;20146;-73
2023/12/20 07:42:30;;;;;;;4.10;2.92;;;;;;;-9.53;100.00;100254.97;5061928;28;20934;-68
2023/12/20 07:45:00;;;;;;;2.72;2.53;;;;;;;-9.56;100.00;100251.50;5064645;28;20155;-68
2023/12/20 07:47:31;;;;;;;4.38;2.60;;;;;;;-9.58;100.00;100248.00;5058673;28;20131;-73
2023/12/20 07:50:01;;;;;;;6.63;2.92;;;;;;;-9.60;100.00;100243.63;5059294;28;20439;-71
2023/12/20 07:52:32;;;;;;;7.13;3.10;;;;;;;-9.63;100.00;100239.25;5049294;28;20056;-67
2023/12/20 07:55:04;;;;;;;3.72;2.80;;;;;;;-9.58;100.00;100260.66;5059501;28;20146;-71
2023/12/20 07:57:35;;;;;;;3.00;2.50;;;;;;;-9.59;100.00;100251.28;5051378;28;20048;-72
2023/12/20 08:00:07;;;;;;;6.22;2.60;;;;;;;-9.61;100.00;100257.94;5061209;28;20121;-74
2023/12/20 08:02:38;;;;;;;4.57;3.13;;;;;;;-9.59;100.00;100253.81;5050902;28;20059;-73
2023/12/20 08:05:09;;;;;;;2.72;2.30;;;;;;;-9.59;100.00;100252.94;5058862;28;20051;-71
2023/12/20 08:07:39;;;;;;;7.50;3.00;;;;;;;-9.64;100.00;100272.00;5047716;28;21204;-68
2023/12/20 08:10:12;;;;;;;3.15;2.53;;;;;;;-9.66;100.00;100259.28;5056873;28;20079;-67
2023/12/20 08:12:43;;;;;;;5.85;2.58;;;;;;;-9.65;100.00;100271.16;5044222;28;20485;-73
2023/12/20 08:15:14;;;;;;;10.30;2.88;;;;;;;-9.63;100.00;100277.19;5057773;28;20051;-70
2023/12/20 08:17:44;;;;;;;5.32;2.88;;;;;;;-9.61;100.00;100268.06;5048632;28;20131;-70
2023/12/20 08:20:15;;;;;;;5.63;3.05;;;;;;;-9.61;100.00;100277.25;5058448;28;20052;-72
2023/12/20 08:22:55;;;;;;;5.82;3.38;;;;;;;-9.61;100.00;100273.09;5044749;28;20067;-69
2023/12/20 08:25:27;;;;;;;5.88;3.65;;;;;;;-9.61;100.00;100263.00;5055119;28;20065;-73
2023/12/20 08:27:58;;;;;;;13.18;4.32;;;;;;;-9.62;100.00;100271.34;5039867;28;20067;-73
2023/12/20 08:30:28;;;;;;;7.90;3.80;;;;;;;-9.66;100.00;100269.41;5058623;28;20067;-67
2023/12/20 08:33:01;;;;;;;7.93;3.65;;;;;;;-9.61;100.00;100272.22;5048420;28;20048;-70
2023/12/20 08:35:31;;;;;;;6.07;3.20;;;;;;;-9.61;100.00;100278.16;5053924;28;20044;-70
2023/12/20 08:38:01;;;;;;;5.25;2.72;;;;;;;-9.57;100.00;100285.16;5058525;28;20048;-70
2023/12/20 08:40:33;;;;;;;5.50;2.80;;;;;;;-9.55;100.00;100278.53;5047013;28;20438;-69
2023/12/20 08:43:04;;;;;;;6.95;2.53;;;;;;;-9.53;100.00;100285.34;5058242;28;20593;-72
2023/12/20 08:45:34;;;;;;;4.43;2.95;;;;;;;-9.56;100.00;100286.91;5048147;28;20048;-70
2023/12/20 08:48:05;;;;;;;3.90;2.30;;;;;;;-9.56;100.00;100291.97;5058768;28;20360;-72
2023/12/20 08:50:38;;;;;;;6.50;2.92;;;;;;;-9.61;100.00;100293.34;5048958;28;20081;-70
2023/12/20 08:53:09;;;;;;;7.38;2.75;;;;;;;-9.63;100.00;100299.94;5058539;28;20174;-75
2023/12/20 08:55:41;;;;;;;2.28;2.17;;;;;;;-9.68;100.00;100301.31;5048726;28;20047;-72
2023/12/20 08:58:12;;;;;;;4.80;2.70;;;;;;;-9.71;100.00;100298.56;5058068;28;20121;-73
2023/12/20 09:00:43;;;;;;;5.10;2.40;;;;;;;-9.71;100.00;100306.13;5047513;28;20055;-73
2023/12/20 09:03:13;;;;;;;6.57;3.00;;;;;;;-9.72;100.00;100304.41;5058800;28;20756;-69
2023/12/20 09:05:43;;;;;;;3.88;2.47;;;;;;;-9.74;100.00;100305.06;5049657;28;20492;-79
2023/12/20 09:08:14;;;;;;;6.00;2.55;;;;;;;-9.78;100.00;100304.03;5053847;28;20158;-75
2023/12/20 09:10:46;;;;;;;3.30;2.50;;;;;;;-9.83;100.00;100300.31;5043987;28;20048;-71
2023/12/20 09:13:17;;;;;;;3.33;2.80;;;;;;;-9.85;100.00;100309.44;5059295;28;20826;-70
2023/12/20 09:15:47;;;;;;;3.17;2.60;;;;;;;-9.84;100.00;100311.19;5046126;28;20044;-74
2023/12/20 09:18:18;;;;;;;2.72;2.42;;;;;;;-9.83;100.00;100315.50;5057917;28;20052;-72
2023/12/20 09:20:48;;;;;;;2.45;2.25;;;;;;;-9.82;100.00;100310.50;5047203;28;20075;-73
2023/12/20 09:23:19;;;;;;;3.53;2.70;;;;;;;-9.84;100.00;100303.59;5057379;28;20135;-74
2023/12/20 09:25:51;;;;;;;2.67;2.45;;;;;;;-9.84;100.00;100298.53;5043956;28;20140;-70
2023/12/20 09:28:26;;;;;;;8.55;2.88;;;;;;;-9.84;100.00;100293.50;5054678;28;20051;-71
2023/12/20 09:30:57;;;;;;;3.97;2.58;;;;;;;-9.83;100.00;100305.38;5051219;28;20052;-71
2023/12/20 09:33:27;;;;;;;4.93;2.70;;;;;;;-9.83;100.00;100300.31;5058752;28;20067;-67
2023/12/20 09:35:58;;;;;;;3.35;2.40;;;;;;;-9.84;100.00;100304.47;5051581;28;20729;-73
2023/12/20 09:38:29;;;;;;;5.53;2.35;;;;;;;-9.86;100.00;100305.16;5061851;28;20071;-72
2023/12/20 09:41:02;;;;;;;5.28;2.40;;;;;;;-9.87;100.00;100298.34;5051135;28;20052;-75
2023/12/20 09:43:34;;;;;;;2.50;2.30;;;;;;;-9.90;100.00;100303.22;5049304;28;20055;-70
2023/12/20 09:46:08;;;;;;;6.35;2.75;;;;;;;-9.90;100.00;100304.09;5061393;28;20491;-75
2023/12/20 09:48:39;;;;;;;5.32;2.70;;;;;;;-9.94;100.00;100301.25;5051720;28;20048;-71
2023/12/20 09:51:09;;;;;;;2.92;2.30;;;;;;;-9.91;100.00;100301.44;5062009;28;20063;-73
2023/12/20 09:53:41;;;;;;;6.07;2.80;;;;;;;-9.92;100.00;100305.63;5051824;28;20055;-69
2023/12/20 09:56:14;;;;;;;4.68;2.83;;;;;;;-9.91;100.00;100296.38;5061278;28;20135;-68
2023/12/20 09:58:45;;;;;;;5.65;2.97;;;;;;;-9.86;100.00;100302.63;5047160;28;20083;-73
2023/12/20 10:01:16;;;;;;;4.28;2.85;;;;;;;-9.85;100.00;100306.91;5061234;28;20129;-72
2023/12/20 10:03:46;;;;;;;9.43;2.83;;;;;;;-9.85;100.00;100299.34;5050480;28;20479;-66
2023/12/20 10:06:17;;;;;;;3.63;2.38;;;;;;;-9.85;100.00;100304.41;5059612;28;20126;-71
2023/12/20 10:08:48;;;;;;;4.93;2.60;;;;;;;-9.85;100.00;100306.91;5050065;28;20383;-71
2023/12/20 10:11:20;;;;;;;2.70;2.50;;;;;;;-9.83;100.00;100301.19;5060585;28;20044;-73
2023/12/20 10:13:50;;;;;;;7.40;2.67;;;;;;;-9.84;100.00;100303.59;5050617;28;20040;-74
2023/12/20 10:16:27;;;;;;;3.60;2.60;;;;;;;-9.84;100.00;100311.19;5060566;28;20055;-65
2023/12/20 10:18:58;;;;;;;3.47;2.60;;;;;;;-9.86;100.00;100311.09;5049652;28;20128;-69
2023/12/20 10:21:29;;;;;;;4.40;2.97;;;;;;;-10.00;100.00;100284.91;5057597;28;20118;-71
2023/12/20 10:24:00;;;;;;;4.03;2.78;;;;;;;-9.90;100.00;100310.81;5051215;28;20043;-72
2023/12/20 10:26:32;;;;;;;4.43;2.65;;;;;;;-9.91;100.00;100311.56;5056886;28;20677;-68
2023/12/20 10:29:04;;;;;;;5.50;2.97;;;;;;;-9.94;100.00;100313.88;5060525;28;20143;-71
2023/12/20 10:31:36;;;;;;;4.80;3.25;;;;;;;-9.96;100.00;100307.84;5050724;28;20058;-70
2023/12/20 10:34:06;;;;;;;2.33;2.15;;;;;;;-9.93;100.00;100328.28;5061076;28;20044;-72
2023/12/20 10:36:37;;;;;;;5.22;2.80;;;;;;;-10.00;100.00;100307.66;5047631;28;20040;-66
2023/12/20 10:39:11;;;;;;;4.38;2.95;;;;;;;-10.00;100.00;100316.91;5059424;28;20143;-68
2023/12/20 10:41:45;;;;;;;5.28;3.13;;;;;;;-10.00;100.00;100317.78;5049695;28;20643;-74
2023/12/20 10:44:16;;;;;;;5.28;2.65;;;;;;;-10.02;100.00;100319.31;5060562;28;20048;-68
2023/12/20 10:46:51;;;;;;;4.95;3.47;;;;;;;-10.01;100.00;100316.03;5046867;28;20083;-73
2023/12/20 10:49:22;;;;;;;4.65;2.63;;;;;;;-10.03;100.00;100321.75;5057169;28;20677;-70
2023/12/20 10:51:57;;;;;;;2.67;2.47;;;;;;;-10.06;100.00;100312.31;5046693;28;20059;-67
2023/12/20 10:54:27;;;;;;;5.30;2.97;;;;;;;-10.05;100.00;100324.16;5060426;28;20715;-75
2023/12/20 10:57:00;;;;;;;5.47;2.60;;;;;;;-10.06;100.00;100319.00;5050346;28;20701;-71
2023/12/20 10:59:34;;;;;;;4.15;3.28;;;;;;;-10.13;100.00;100317.75;5058328;28;20048;-69
2023/12/20 11:02:06;;;;;;;2.53;2.33;;;;;;;-11.08;100.00;100157.38;5060169;28;20917;-71
2023/12/20 11:04:46;;;;;;;4.97;3.15;;;;;;;-10.09;100.00;100312.09;5050401;28;20056;-70
2023/12/20 11:07:23;;;;;;;;;;;;;;;-10.10;100.00;100305.31;5060391;28;20059;-67
2023/12/20 11:10:01;;;;;;;5.20;3.35;;;;;;;-10.11;100.00;100308.59;5047909;28;19943;-70
2023/12/20 11:12:43;;;;;;;4.60;3.00;;;;;;;-10.13;100.00;100310.16;5052734;28;20093;-67
2023/12/20 11:15:16;;;;;;;5.00;3.63;;;;;;;-10.09;100.00;100306.16;5049637;28;20044;-71
2023/12/20 11:17:47;;;;;;;4.40;2.50;;;;;;;-10.11;100.00;100316.16;5030511;28;20103;-70
2023/12/20 11:20:24;;;;;;;6.63;3.33;;;;;;;-10.12;100.00;100316.97;5040385;28;20060;-66
2023/12/20 11:22:56;;;;;;;3.72;2.47;;;;;;;-10.19;100.00;100309.72;5029902;28;20451;-71
2023/12/20 11:25:26;;;;;;;2.53;2.33;;;;;;;-10.17;100.00;100308.19;5039727;28;20056;-70
2023/12/20 11:28:13;;;;;;;3.45;3.00;;;;;;;-10.18;100.00;100319.09;5021822;28;20052;-72
2023/12/20 11:30:47;;;;;;;4.47;2.90;;;;;;;-10.25;100.00;100312.75;5029240;28;20052;-71
2023/12/20 11:33:18;;;;;;;5.53;2.90;;;;;;;-10.18;100.00;100326.66;5039905;28;20056;-67
2023/12/20 11:35:48;;;;;;;6.30;2.67;;;;;;;-10.18;100.00;100321.63;5029939;28;20098;-66